Time;durP1;ratioP1;P1;durP2;ratioP2;P2;SDS_P1;SDS_P2;PMS_P1;PMS_P2;Temp;Humidity;BMP_temperature;BMP_pressure;BME280_temperature;BME280_humidity;BME280_pressure;Samples;Min_cycle;Max_cycle;Signal;HPM_P1;HPM_P2
2022/05/02 00:00:41;;;;;;;10.07;6.40;;;10.20;99.90;;;;;;4989201;28;20023;-57
2022/05/02 00:03:06;;;;;;;9.88;7.13;;;10.30;99.90;;;;;;4988676;28;20030;-56
2022/05/02 00:05:32;;;;;;;9.90;5.80;;;10.30;99.90;;;;;;4989297;28;20033;-57
2022/05/02 00:07:57;;;;;;;13.18;5.95;;;10.30;99.90;;;;;;4989458;28;20129;-58
2022/05/02 00:10:24;;;;;;;10.98;6.57;;;10.20;99.90;;;;;;4991324;28;20019;-56
2022/05/02 00:12:49;;;;;;;9.50;6.63;;;10.30;99.90;;;;;;4971355;28;20514;-55
2022/05/02 00:15:15;;;;;;;9.75;6.25;;;10.30;99.90;;;;;;4990706;28;20030;-56
2022/05/02 00:17:56;;;;;;;9.68;6.18;;;10.30;99.90;;;;;;4990339;28;20085;-58
2022/05/02 00:20:29;;;;;;;9.90;6.97;;;10.30;99.90;;;;;;4989308;28;20031;-57
2022/05/02 00:22:57;;;;;;;16.48;6.57;;;10.30;99.90;;;;;;4988499;28;20030;-56
2022/05/02 00:25:23;;;;;;;12.45;6.90;;;10.30;99.90;;;;;;4990913;28;20038;-56
2022/05/02 00:27:48;;;;;;;10.02;6.75;;;10.30;99.90;;;;;;4987975;28;20069;-53
2022/05/02 00:30:15;;;;;;;13.02;6.32;;;10.30;99.90;;;;;;4962920;28;20050;-57
2022/05/02 00:32:42;;;;;;;9.88;6.18;;;10.20;99.90;;;;;;4984724;28;20452;-55
2022/05/02 00:35:08;;;;;;;15.90;8.10;;;10.20;99.90;;;;;;4977401;28;20053;-58
2022/05/02 00:37:34;;;;;;;10.63;6.30;;;10.20;99.90;;;;;;4991527;28;20025;-57
2022/05/02 00:40:00;;;;;;;11.10;6.05;;;10.20;99.90;;;;;;4988926;28;20125;-55
2022/05/02 00:42:26;;;;;;;8.82;5.93;;;10.20;99.90;;;;;;4976666;28;20026;-57
2022/05/02 00:44:51;;;;;;;8.63;5.90;;;10.20;99.90;;;;;;4978815;28;20046;-58
2022/05/02 00:47:18;;;;;;;12.82;6.40;;;10.20;99.90;;;;;;4972540;28;20031;-56
2022/05/02 00:49:44;;;;;;;10.63;5.97;;;10.20;99.90;;;;;;4977589;28;20029;-51
2022/05/02 00:52:10;;;;;;;10.32;6.38;;;10.20;99.90;;;;;;4981286;28;20038;-56
2022/05/02 00:54:37;;;;;;;10.75;6.70;;;10.10;99.90;;;;;;4979853;28;20037;-55
2022/05/02 00:57:05;;;;;;;11.98;5.95;;;10.20;99.90;;;;;;4976386;28;20025;-56
2022/05/02 00:59:33;;;;;;;10.20;6.22;;;10.10;99.90;;;;;;4975959;28;20460;-56
2022/05/02 01:01:58;;;;;;;13.90;7.47;;;10.10;99.90;;;;;;4974732;28;20023;-57
2022/05/02 01:04:24;;;;;;;13.15;7.22;;;10.00;99.90;;;;;;4976258;28;20041;-57
2022/05/02 01:09:34;;;;;;;9.52;6.43;;;9.80;99.90;;;;;;5002038;28;20117;-57
2022/05/02 01:12:00;;;;;;;13.85;6.82;;;9.70;99.90;;;;;;4974542;28;20117;-57
2022/05/02 01:14:26;;;;;;;10.57;6.25;;;9.60;99.90;;;;;;4986010;28;20109;-55
2022/05/02 01:16:51;;;;;;;13.93;6.95;;;9.60;99.90;;;;;;4989890;28;20093;-57
2022/05/02 01:19:17;;;;;;;10.02;6.90;;;9.60;99.90;;;;;;4987630;28;20728;-53
2022/05/02 01:21:44;;;;;;;10.32;6.65;;;9.70;99.90;;;;;;4982103;28;20476;-55
2022/05/02 01:24:10;;;;;;;9.70;6.65;;;9.60;99.90;;;;;;4981041;28;20018;-56
2022/05/02 01:26:37;;;;;;;14.35;6.75;;;9.60;99.90;;;;;;4970000;28;20419;-53
2022/05/02 01:29:03;;;;;;;14.10;7.00;;;9.50;99.90;;;;;;4977752;28;20162;-55
2022/05/02 01:31:29;;;;;;;13.52;6.95;;;9.30;99.90;;;;;;4980601;28;20057;-56
2022/05/02 01:33:55;;;;;;;14.40;6.97;;;9.20;99.90;;;;;;4984412;28;20030;-55
2022/05/02 01:36:22;;;;;;;11.52;6.90;;;9.20;99.90;;;;;;4981593;28;20042;-54
2022/05/02 01:38:47;;;;;;;9.98;7.15;;;9.20;99.90;;;;;;4991607;28;20256;-58
2022/05/02 01:41:13;;;;;;;13.20;8.00;;;9.10;99.90;;;;;;4977179;28;20019;-57
2022/05/02 01:43:39;;;;;;;11.18;7.15;;;9.00;99.90;;;;;;4989997;28;20491;-56
2022/05/02 01:46:07;;;;;;;12.30;7.57;;;8.90;99.90;;;;;;5007969;28;20076;-57
2022/05/02 01:48:33;;;;;;;13.50;7.38;;;8.80;99.90;;;;;;4992218;28;20037;-57
2022/05/02 01:50:59;;;;;;;10.10;7.65;;;8.70;99.90;;;;;;4989489;28;20034;-57
2022/05/02 01:53:25;;;;;;;10.25;7.07;;;8.60;99.90;;;;;;4993223;28;20404;-56
2022/05/02 01:55:51;;;;;;;13.35;7.82;;;8.60;99.90;;;;;;4993423;28;20025;-54
2022/05/02 01:58:17;;;;;;;11.70;7.00;;;8.60;99.90;;;;;;4976992;28;20526;-56
2022/05/02 02:00:42;;;;;;;13.30;7.18;;;8.70;99.90;;;;;;4988409;28;20026;-56
2022/05/02 02:03:08;;;;;;;10.38;6.95;;;8.70;99.90;;;;;;4988381;28;20540;-57
2022/05/02 02:05:49;;;;;;;9.75;7.53;;;8.70;99.90;;;;;;4993260;28;20424;-57
2022/05/02 02:08:23;;;;;;;11.20;7.15;;;8.70;99.90;;;;;;4989545;28;20030;-59
2022/05/02 02:10:53;;;;;;;9.82;6.70;;;8.70;99.90;;;;;;4991857;28;20439;-56
2022/05/02 02:13:19;;;;;;;9.95;6.70;;;8.80;99.90;;;;;;4992834;28;20530;-50
2022/05/02 02:15:45;;;;;;;10.10;6.43;;;8.80;99.90;;;;;;4990005;28;20109;-55
2022/05/02 02:18:10;;;;;;;14.65;7.20;;;8.80;99.90;;;;;;4993262;28;20033;-58
2022/05/02 02:20:36;;;;;;;12.85;7.05;;;8.80;99.90;;;;;;4991852;28;20033;-58
2022/05/02 02:23:03;;;;;;;9.75;7.43;;;8.80;99.90;;;;;;4993132;28;20037;-58
2022/05/02 02:25:29;;;;;;;10.93;6.82;;;8.70;99.90;;;;;;4990976;28;20685;-58
2022/05/02 02:27:54;;;;;;;10.75;7.18;;;8.70;99.90;;;;;;4992695;28;20054;-57
2022/05/02 02:30:20;;;;;;;12.82;8.18;;;8.70;99.90;;;;;;4987964;28;20096;-58
2022/05/02 02:32:46;;;;;;;14.27;7.53;;;8.70;99.90;;;;;;4994605;28;20018;-52
2022/05/02 02:35:12;;;;;;;15.43;9.35;;;8.60;99.90;;;;;;4992458;28;20030;-57
2022/05/02 02:37:37;;;;;;;11.80;8.55;;;8.60;99.90;;;;;;4984853;28;20027;-57
2022/05/02 02:40:03;;;;;;;13.13;8.63;;;8.50;99.90;;;;;;4992803;28;20084;-56
2022/05/02 02:42:29;;;;;;;12.10;8.50;;;8.60;99.90;;;;;;4989906;28;20118;-56
2022/05/02 02:44:54;;;;;;;11.75;8.23;;;8.50;99.90;;;;;;4992168;28;20109;-59
2022/05/02 02:47:20;;;;;;;14.13;8.80;;;8.50;99.90;;;;;;4991245;28;20026;-56
2022/05/02 02:49:46;;;;;;;14.32;8.25;;;8.50;99.90;;;;;;4992471;28;20673;-59
2022/05/02 02:52:11;;;;;;;11.18;8.00;;;8.50;99.90;;;;;;4988802;28;20030;-56
2022/05/02 02:54:37;;;;;;;15.93;8.50;;;8.50;99.90;;;;;;4991469;28;20084;-58
2022/05/02 02:57:03;;;;;;;13.02;8.07;;;8.40;99.90;;;;;;4992367;28;20042;-56
2022/05/02 02:59:28;;;;;;;11.82;8.23;;;8.30;99.90;;;;;;4977088;28;20388;-58
2022/05/02 03:01:56;;;;;;;11.10;7.93;;;8.20;99.90;;;;;;4989503;28;20172;-57
2022/05/02 03:07:07;;;;;;;;;;;8.10;99.90;;;;;;4984080;28;20495;-57
2022/05/02 03:09:33;;;;;;;14.88;8.23;;;8.10;99.90;;;;;;4992043;28;20379;-59
2022/05/02 03:11:59;;;;;;;16.40;8.90;;;8.10;99.90;;;;;;4990997;28;20041;-57
2022/05/02 03:14:24;;;;;;;14.80;8.45;;;8.10;99.90;;;;;;4992158;28;20026;-58
2022/05/02 03:16:50;;;;;;;14.27;8.60;;;8.10;99.90;;;;;;4986892;28;20480;-58
2022/05/02 03:19:15;;;;;;;16.95;9.95;;;8.10;99.90;;;;;;4985397;28;20437;-57
2022/05/02 03:21:41;;;;;;;13.02;8.32;;;8.10;99.90;;;;;;4991296;28;20100;-56
2022/05/02 03:24:07;;;;;;;13.23;8.80;;;8.00;99.90;;;;;;4990606;28;20105;-58
2022/05/02 03:26:32;;;;;;;16.15;9.27;;;8.00;99.90;;;;;;4991195;28;20033;-55
2022/05/02 03:28:58;;;;;;;15.02;9.45;;;8.00;99.90;;;;;;4989895;28;20026;-53
2022/05/02 03:31:24;;;;;;;12.02;8.75;;;8.00;99.90;;;;;;4991657;28;20458;-57
2022/05/02 03:33:49;;;;;;;14.82;9.00;;;8.10;99.90;;;;;;4988869;28;20043;-57
2022/05/02 03:36:15;;;;;;;11.90;7.55;;;8.10;99.90;;;;;;4992510;28;20093;-59
2022/05/02 03:38:40;;;;;;;15.30;8.98;;;8.20;99.90;;;;;;4988923;28;20035;-57
2022/05/02 03:41:06;;;;;;;14.60;8.40;;;8.20;99.90;;;;;;4991494;28;20027;-57
2022/05/02 03:43:32;;;;;;;12.48;8.30;;;8.20;99.90;;;;;;4987094;28;20034;-58
2022/05/02 03:45:58;;;;;;;11.90;8.32;;;8.30;99.90;;;;;;4992370;28;20088;-55
2022/05/02 03:48:23;;;;;;;12.93;8.82;;;8.30;99.90;;;;;;4989412;28;20030;-59
2022/05/02 03:50:49;;;;;;;12.05;8.45;;;8.40;99.90;;;;;;4991139;28;20052;-56
2022/05/02 03:53:18;;;;;;;15.77;8.73;;;8.40;99.90;;;;;;4989683;28;20040;-58
2022/05/02 03:55:45;;;;;;;12.82;7.93;;;8.40;99.90;;;;;;4991196;28;20061;-58
2022/05/02 03:58:11;;;;;;;12.35;8.70;;;8.40;99.90;;;;;;4973959;28;20049;-54
2022/05/02 04:00:36;;;;;;;14.80;8.95;;;8.40;99.90;;;;;;4985839;28;20022;-57
2022/05/02 04:03:02;;;;;;;15.60;8.52;;;8.40;99.90;;;;;;4989499;28;20045;-58
2022/05/02 04:05:27;;;;;;;11.32;8.27;;;8.40;99.90;;;;;;4991139;28;20579;-58
2022/05/02 04:07:53;;;;;;;14.20;8.00;;;8.40;99.90;;;;;;4989703;28;20037;-58
2022/05/02 04:10:18;;;;;;;15.30;8.75;;;8.40;99.90;;;;;;4989939;28;20102;-60
2022/05/02 04:12:44;;;;;;;12.80;8.20;;;8.40;99.90;;;;;;4989514;28;20045;-57
2022/05/02 04:15:10;;;;;;;11.73;8.40;;;8.40;99.90;;;;;;4986549;28;20035;-58
2022/05/02 04:17:39;;;;;;;11.25;7.30;;;8.40;99.90;;;;;;4989323;28;20029;-57
2022/05/02 04:20:06;;;;;;;12.68;8.63;;;8.40;99.90;;;;;;4989907;28;20161;-59
2022/05/02 04:22:32;;;;;;;14.13;9.15;;;8.40;99.90;;;;;;4988979;28;20084;-59
2022/05/02 04:24:57;;;;;;;16.15;8.40;;;8.40;99.90;;;;;;4988604;28;20046;-59
2022/05/02 04:27:23;;;;;;;14.63;9.00;;;8.40;99.90;;;;;;4992816;28;20434;-55
2022/05/02 04:29:48;;;;;;;13.23;8.85;;;8.40;99.90;;;;;;4990499;28;20031;-54
2022/05/02 04:32:14;;;;;;;11.30;8.23;;;8.50;99.90;;;;;;4989220;28;20396;-59
2022/05/02 04:34:39;;;;;;;11.32;7.88;;;8.60;99.90;;;;;;4990535;28;20060;-57
2022/05/02 04:37:07;;;;;;;13.20;7.68;;;8.60;99.90;;;;;;4989110;28;20062;-59
2022/05/02 04:39:32;;;;;;;11.35;8.00;;;8.60;99.90;;;;;;4986762;28;20030;-58
2022/05/02 04:41:58;;;;;;;10.40;6.95;;;8.50;99.90;;;;;;4980601;28;20056;-61
2022/05/02 04:44:23;;;;;;;12.48;7.93;;;8.60;99.90;;;;;;4987422;28;20030;-60
2022/05/02 04:46:49;;;;;;;11.45;7.85;;;8.60;99.90;;;;;;4989868;28;20496;-60
2022/05/02 04:49:15;;;;;;;13.65;8.02;;;8.60;99.90;;;;;;4989738;28;20039;-60
2022/05/02 04:51:40;;;;;;;12.23;7.35;;;8.70;99.90;;;;;;4989972;28;20023;-58
2022/05/02 04:54:06;;;;;;;12.25;8.15;;;8.70;99.90;;;;;;4988992;28;20030;-57
2022/05/02 04:56:32;;;;;;;15.40;8.05;;;8.80;99.90;;;;;;4993627;28;20110;-59
2022/05/02 04:58:57;;;;;;;15.73;8.30;;;8.70;99.90;;;;;;4973173;28;20050;-54
2022/05/02 05:01:23;;;;;;;10.27;7.10;;;8.80;99.90;;;;;;4988237;28;20026;-54
2022/05/02 05:03:48;;;;;;;12.15;8.30;;;8.80;99.90;;;;;;4989126;28;20038;-59
2022/05/02 05:06:14;;;;;;;15.02;8.77;;;8.90;99.90;;;;;;4991437;28;20034;-60
2022/05/02 05:08:40;;;;;;;12.85;7.57;;;8.90;99.90;;;;;;4992780;28;20089;-60
2022/05/02 05:11:27;;;;;;;12.23;8.52;;;9.00;99.90;;;;;;4994477;28;20026;-59
2022/05/02 05:17:09;;;;;;;18.25;8.25;;;9.20;99.90;;;;;;4984494;28;20037;-58
2022/05/02 05:19:45;;;;;;;15.05;8.82;;;9.40;99.90;;;;;;4992478;28;20495;-58
2022/05/02 05:22:42;;;;;;;15.98;9.80;;;9.50;99.90;;;;;;4992154;28;20027;-59
2022/05/02 05:25:16;;;;;;;18.83;10.23;;;9.50;99.90;;;;;;4970066;28;20577;-60
2022/05/02 05:27:57;;;;;;;12.50;7.43;;;9.50;99.90;;;;;;4986518;28;20045;-57
2022/05/02 05:30:26;;;;;;;11.80;6.95;;;9.50;99.90;;;;;;4991743;28;20030;-60
2022/05/02 05:32:52;;;;;;;14.85;7.75;;;9.40;99.90;;;;;;4988068;28;20500;-59
2022/05/02 05:35:35;;;;;;;9.40;7.03;;;9.50;99.90;;;;;;4993322;28;20037;-58
2022/05/02 05:38:08;;;;;;;13.18;7.20;;;9.50;99.90;;;;;;4984881;28;20026;-60
2022/05/02 05:40:44;;;;;;;11.75;7.70;;;9.60;99.90;;;;;;4993855;28;20100;-60
2022/05/02 05:43:34;;;;;;;10.82;7.78;;;9.70;99.90;;;;;;4992423;28;20117;-59
2022/05/02 05:46:15;;;;;;;9.27;6.43;;;9.80;99.90;;;;;;4987662;28;20053;-59
2022/05/02 05:49:25;;;;;;;12.35;6.70;;;9.90;99.90;;;;;;5014682;28;20030;-56
2022/05/02 05:52:10;;;;;;;11.85;7.30;;;10.10;99.90;;;;;;4985271;28;20038;-57
2022/05/02 05:55:07;;;;;;;10.07;6.85;;;10.30;99.90;;;;;;4992427;28;20047;-55
2022/05/02 05:57:44;;;;;;;10.10;7.70;;;10.30;99.90;;;;;;4971134;28;20046;-56
2022/05/02 06:00:11;;;;;;;13.60;7.78;;;10.50;99.90;;;;;;4959768;28;20124;-59
2022/05/02 06:02:54;;;;;;;11.45;7.28;;;10.60;99.90;;;;;;4989663;28;20041;-57
2022/05/02 06:05:20;;;;;;;14.10;7.57;;;10.80;99.90;;;;;;4992584;28;20030;-57
2022/05/02 06:07:46;;;;;;;9.68;7.45;;;10.90;99.90;;;;;;4991188;28;20060;-57
2022/05/02 06:10:14;;;;;;;7.65;6.32;;;11.10;99.90;;;;;;4992348;28;20509;-58
2022/05/02 06:12:41;;;;;;;8.60;6.03;;;11.40;99.90;;;;;;4991676;28;20018;-61
2022/05/02 06:20:42;;;;;;;10.77;6.50;;;12.00;99.90;;;;;;4989798;28;20037;-60
2022/05/02 06:23:10;;;;;;;10.07;6.90;;;12.30;99.90;;;;;;4987835;28;20034;-58
2022/05/02 06:25:40;;;;;;;8.57;6.63;;;12.70;99.90;;;;;;4990180;28;20077;-59
2022/05/02 06:28:07;;;;;;;9.40;6.53;;;13.30;99.90;;;;;;4990902;28;20122;-59
2022/05/02 06:30:37;;;;;;;12.10;7.70;;;14.20;99.90;;;;;;4991158;28;20105;-58
2022/05/02 06:33:11;;;;;;;11.65;6.45;;;14.70;99.90;;;;;;4990494;28;20049;-60
2022/05/02 06:36:03;;;;;;;12.43;6.15;;;15.50;99.80;;;;;;4991301;28;20014;-59
2022/05/02 06:38:59;;;;;;;10.52;6.85;;;16.00;97.90;;;;;;4989164;28;20044;-59
2022/05/02 06:41:39;;;;;;;9.88;5.78;;;15.80;98.20;;;;;;4989209;28;20033;-56
2022/05/02 06:44:23;;;;;;;10.20;5.95;;;15.80;98.60;;;;;;4992078;28;20100;-58
2022/05/02 06:47:05;;;;;;;7.63;6.00;;;15.50;98.60;;;;;;4985039;28;20084;-60
2022/05/02 06:49:33;;;;;;;8.30;6.18;;;16.50;98.90;;;;;;4989643;28;20185;-61
2022/05/02 06:52:07;;;;;;;8.65;5.72;;;17.40;96.80;;;;;;4988704;28;20040;-61
2022/05/02 06:55:02;;;;;;;8.73;5.32;;;18.40;95.50;;;;;;4991085;28;20058;-57
2022/05/02 06:57:58;;;;;;;8.05;5.75;;;19.70;92.60;;;;;;4990813;28;20065;-61
2022/05/02 07:00:24;;;;;;;7.93;4.90;;;21.10;90.20;;;;;;4972604;28;20052;-59
2022/05/02 07:03:02;;;;;;;11.25;5.00;;;21.50;87.30;;;;;;4989412;28;20030;-58
2022/05/02 07:05:51;;;;;;;7.45;5.10;;;21.40;86.70;;;;;;4989432;28;20035;-60
2022/05/02 07:08:26;;;;;;;10.77;5.30;;;21.80;84.70;;;;;;4988498;28;20097;-60
2022/05/02 07:11:01;;;;;;;7.93;5.47;;;21.60;79.40;;;;;;4988973;28;20454;-61
2022/05/02 07:14:04;;;;;;;8.10;4.95;;;21.70;79.40;;;;;;4990927;28;20041;-59
2022/05/02 07:16:32;;;;;;;12.85;5.25;;;21.60;76.30;;;;;;4982916;28;20038;-61
2022/05/02 07:19:24;;;;;;;10.27;4.68;;;21.20;77.40;;;;;;4991026;28;20042;-59
2022/05/02 07:22:03;;;;;;;6.65;4.75;;;20.60;76.70;;;;;;4990096;28;20149;-61
2022/05/02 07:24:35;;;;;;;10.05;5.05;;;20.50;78.70;;;;;;4987546;28;20026;-60
2022/05/02 07:27:20;;;;;;;13.40;5.55;;;20.90;78.30;;;;;;4987847;28;20126;-61
2022/05/02 07:29:47;;;;;;;8.43;4.85;;;21.70;77.40;;;;;;4989721;28;20503;-61
2022/05/02 07:32:14;;;;;;;6.53;4.07;;;22.20;75.50;;;;;;4986329;28;20377;-60
2022/05/02 07:34:41;;;;;;;6.32;4.28;;;23.30;73.70;;;;;;4986134;28;20029;-57
2022/05/02 07:37:08;;;;;;;8.15;4.65;;;23.60;72.80;;;;;;4981326;28;20062;-59
2022/05/02 07:39:38;;;;;;;10.70;5.07;;;24.30;70.90;;;;;;4983089;28;20034;-57
2022/05/02 07:42:05;;;;;;;5.22;4.70;;;23.50;69.70;;;;;;4980496;28;20522;-59
2022/05/02 07:44:34;;;;;;;9.40;4.50;;;22.70;70.70;;;;;;4989699;28;20050;-55
2022/05/02 07:47:04;;;;;;;10.20;5.05;;;23.20;71.30;;;;;;4987184;28;20117;-57
2022/05/02 07:49:32;;;;;;;8.60;4.50;;;23.50;71.70;;;;;;4983221;28;20033;-58
2022/05/02 07:52:00;;;;;;;7.70;4.45;;;24.80;67.70;;;;;;4989009;28;20105;-59
2022/05/02 07:54:29;;;;;;;5.25;4.35;;;25.00;66.70;;;;;;4994207;28;20446;-59
2022/05/02 07:57:00;;;;;;;7.78;4.75;;;25.10;66.30;;;;;;4989099;28;20030;-59
2022/05/02 07:59:30;;;;;;;9.13;4.35;;;23.80;66.70;;;;;;4973939;28;20050;-54
2022/05/02 08:01:58;;;;;;;12.07;4.70;;;23.30;68.40;;;;;;4989346;28;20030;-59
2022/05/02 08:04:24;;;;;;;6.70;4.93;;;23.60;68.80;;;;;;4990710;28;20458;-59
2022/05/02 08:07:21;;;;;;;9.77;4.40;;;23.70;68.00;;;;;;4988251;28;20053;-59
2022/05/02 08:09:49;;;;;;;9.02;4.22;;;24.50;67.50;;;;;;4982391;28;20541;-59
2022/05/02 08:12:29;;;;;;;6.85;4.28;;;24.90;66.50;;;;;;4990209;28;20030;-59
2022/05/02 08:15:17;;;;;;;8.23;4.60;;;25.50;66.60;;;;;;4989648;28;20103;-60
2022/05/02 08:17:42;;;;;;;5.60;4.03;;;25.40;65.00;;;;;;4983684;28;20535;-56
2022/05/02 08:20:11;;;;;;;7.93;4.20;;;25.50;65.40;;;;;;4981136;28;20157;-56
2022/05/02 08:28:34;;;;;;;8.57;4.57;;;25.50;62.40;;;;;;4987164;28;20101;-59
2022/05/02 08:31:18;;;;;;;6.75;4.47;;;26.00;61.80;;;;;;4990705;28;20042;-60
2022/05/02 08:34:26;;;;;;;13.20;4.95;;;25.40;62.30;;;;;;4988474;28;20061;-60
2022/05/02 08:36:59;;;;;;;7.05;4.60;;;25.60;60.70;;;;;;4908081;29;20074;-59
2022/05/02 08:39:40;;;;;;;12.73;5.30;;;26.10;60.30;;;;;;4905058;29;20033;-51
2022/05/02 08:42:23;;;;;;;10.60;4.25;;;26.50;59.60;;;;;;4964137;28;20038;-59
2022/05/02 08:45:08;;;;;;;7.32;4.68;;;26.00;60.70;;;;;;4991209;28;20781;-57
2022/05/02 08:48:08;;;;;;;9.45;5.25;;;26.50;59.30;;;;;;4997008;28;20110;-59
2022/05/02 08:51:14;;;;;;;16.20;5.72;;;25.70;59.20;;;;;;4992333;28;20022;-60
2022/05/02 08:53:48;;;;;;;7.63;4.15;;;25.50;60.60;;;;;;4990526;28;20026;-60
2022/05/02 08:56:45;;;;;;;10.27;5.35;;;26.70;59.80;;;;;;4992576;28;20503;-57
2022/05/02 09:00:05;;;;;;;10.32;5.22;;;25.90;58.70;;;;;;4970321;28;20530;-60
2022/05/02 09:02:46;;;;;;;11.77;4.88;;;25.20;63.20;;;;;;4928099;29;20047;-59
2022/05/02 09:05:38;;;;;;;8.43;4.68;;;25.20;61.20;;;;;;4929455;29;20079;-59
2022/05/02 09:08:25;;;;;;;8.43;5.07;;;26.10;61.20;;;;;;4981914;28;20049;-59
2022/05/02 09:10:56;;;;;;;6.30;4.53;;;25.20;60.00;;;;;;4994610;28;20045;-59
2022/05/02 09:13:42;;;;;;;8.00;4.88;;;25.30;61.30;;;;;;4992857;28;20077;-59
2022/05/02 09:16:49;;;;;;;9.05;5.22;;;25.80;60.80;;;;;;4992461;28;20042;-58
2022/05/02 09:19:35;;;;;;;11.52;5.20;;;26.00;61.10;;;;;;4946420;28;20046;-62
2022/05/02 09:22:28;;;;;;;9.13;5.15;;;25.90;61.30;;;;;;4989388;28;20125;-59
2022/05/02 09:25:07;;;;;;;9.77;5.03;;;25.80;60.60;;;;;;4994067;28;20027;-60
2022/05/02 09:27:42;;;;;;;7.00;4.63;;;25.60;60.90;;;;;;4991457;28;20446;-59
2022/05/02 09:30:39;;;;;;;6.68;5.05;;;25.90;60.20;;;;;;4993958;28;20038;-57
2022/05/02 09:33:30;;;;;;;9.35;5.40;;;26.60;59.30;;;;;;4990073;28;20034;-60
2022/05/02 09:36:30;;;;;;;5.72;4.57;;;25.80;61.30;;;;;;4980525;28;20070;-60
2022/05/02 09:39:20;;;;;;;7.18;4.72;;;26.30;58.70;;;;;;4992878;28;20030;-59
2022/05/02 09:42:03;;;;;;;11.70;5.47;;;25.90;59.70;;;;;;4985844;28;20033;-60
2022/05/02 09:51:10;;;;;;;14.07;6.32;;;25.00;61.60;;;;;;4984909;28;20126;-58
2022/05/02 09:53:48;;;;;;;13.40;5.63;;;24.10;62.30;;;;;;4993155;28;20383;-60
2022/05/02 09:56:39;;;;;;;9.80;5.90;;;24.00;63.10;;;;;;4984703;28;20040;-58
2022/05/02 09:59:09;;;;;;;8.50;5.50;;;23.90;63.70;;;;;;4990092;28;20058;-57
2022/05/02 10:01:46;;;;;;;8.82;5.40;;;23.60;64.50;;;;;;5006702;28;20028;-58
2022/05/02 10:04:26;;;;;;;8.02;6.10;;;23.60;65.80;;;;;;4988510;28;20026;-53
2022/05/02 10:06:53;;;;;;;14.10;6.75;;;23.40;63.80;;;;;;4988184;28;20285;-57
2022/05/02 10:09:40;;;;;;;9.25;5.97;;;23.20;64.80;;;;;;4986427;28;20030;-57
2022/05/02 10:12:45;;;;;;;9.50;6.05;;;22.80;66.70;;;;;;4992235;28;20451;-58
2022/05/02 10:15:17;;;;;;;6.78;5.03;;;22.90;67.00;;;;;;4983510;28;20035;-60
2022/05/02 10:17:58;;;;;;;7.18;5.15;;;23.10;67.70;;;;;;4993250;28;20541;-59
2022/05/02 10:20:37;;;;;;;12.10;5.78;;;23.10;67.10;;;;;;4991500;28;20157;-58
2022/05/02 10:23:05;;;;;;;7.90;5.57;;;22.70;67.40;;;;;;5005913;28;20050;-56
2022/05/02 10:25:52;;;;;;;11.60;5.70;;;22.90;67.20;;;;;;4994217;28;20084;-59
2022/05/02 10:28:43;;;;;;;10.32;6.30;;;21.70;68.80;;;;;;4997250;28;20057;-60
2022/05/02 10:31:21;;;;;;;10.23;5.85;;;22.00;69.00;;;;;;4990164;28;20084;-58
2022/05/02 10:33:51;;;;;;;11.13;5.93;;;22.50;68.90;;;;;;4993405;28;20021;-61
2022/05/02 10:36:20;;;;;;;7.68;5.45;;;23.10;66.80;;;;;;4992133;28;20026;-58
2022/05/02 10:38:54;;;;;;;9.48;6.22;;;23.60;68.80;;;;;;4988834;28;20073;-58
2022/05/02 10:41:27;;;;;;;10.73;6.60;;;23.70;63.90;;;;;;4988083;28;20018;-58
2022/05/02 10:44:02;;;;;;;12.82;6.20;;;23.60;66.20;;;;;;4989336;28;20030;-57
2022/05/02 10:46:30;;;;;;;9.02;5.75;;;23.70;65.70;;;;;;4990333;28;20033;-59
2022/05/02 10:49:21;;;;;;;8.93;6.10;;;24.30;63.50;;;;;;4991321;28;20037;-57
2022/05/02 10:51:49;;;;;;;13.90;5.57;;;24.30;64.50;;;;;;4988027;28;20041;-59
2022/05/02 10:54:27;;;;;;;8.07;5.28;;;24.70;64.60;;;;;;4988463;28;20361;-58
2022/05/02 10:57:04;;;;;;;10.32;5.47;;;25.00;61.30;;;;;;4990246;28;20036;-59
2022/05/02 10:59:37;;;;;;;12.45;5.75;;;24.40;64.60;;;;;;4984114;28;20041;-58
2022/05/02 11:02:46;;;;;;;9.50;5.28;;;24.50;62.10;;;;;;4988555;28;20041;-59
2022/05/02 11:05:15;;;;;;;11.25;5.45;;;24.40;61.80;;;;;;4986315;28;20061;-59
2022/05/02 11:08:02;;;;;;;9.75;5.95;;;24.40;62.60;;;;;;4990520;28;20018;-58
2022/05/02 11:10:34;;;;;;;7.63;5.30;;;24.10;65.70;;;;;;4987928;28;20384;-58
2022/05/02 11:13:20;;;;;;;10.25;5.20;;;24.00;64.30;;;;;;4985298;28;20030;-58
2022/05/02 11:15:59;;;;;;;7.82;4.93;;;23.60;63.50;;;;;;4983880;28;20027;-59
2022/05/02 11:21:53;;;;;;;9.20;5.60;;;23.10;65.50;;;;;;4985724;28;20110;-57
2022/05/02 11:24:36;;;;;;;10.80;6.50;;;23.00;66.60;;;;;;4988692;28;20030;-60
2022/05/02 11:27:33;;;;;;;12.50;5.68;;;22.60;66.10;;;;;;4990330;28;20385;-57
2022/05/02 11:30:06;;;;;;;12.90;4.97;;;21.90;66.40;;;;;;4987969;28;20041;-59
2022/05/02 11:32:33;;;;;;;8.50;5.88;;;22.00;66.20;;;;;;4990156;28;20034;-60
2022/05/02 11:35:24;;;;;;;11.85;6.13;;;21.90;66.70;;;;;;4991922;28;20026;-58
2022/05/02 11:37:55;;;;;;;10.70;5.60;;;21.70;66.50;;;;;;4988330;28;20034;-61
2022/05/02 11:40:50;;;;;;;9.85;5.28;;;21.80;65.70;;;;;;4989924;28;20030;-61
2022/05/02 11:43:20;;;;;;;9.57;5.78;;;21.70;66.30;;;;;;4990061;28;20033;-59
2022/05/02 11:46:24;;;;;;;8.93;5.32;;;21.60;68.10;;;;;;4977891;28;20022;-59
2022/05/02 11:49:27;;;;;;;7.43;5.55;;;21.50;67.60;;;;;;4999522;28;20110;-58
2022/05/02 11:51:55;;;;;;;12.57;7.10;;;21.30;69.80;;;;;;4988852;28;20053;-59
2022/05/02 11:54:24;;;;;;;7.78;5.63;;;21.20;69.80;;;;;;4986292;28;20122;-58
2022/05/02 11:57:30;;;;;;;15.13;6.45;;;21.70;67.70;;;;;;4988505;28;20026;-60
2022/05/02 12:00:11;;;;;;;6.43;5.20;;;21.70;66.00;;;;;;4975370;28;20042;-57
2022/05/02 12:02:37;;;;;;;11.32;5.45;;;21.60;67.60;;;;;;4991609;28;20590;-60
2022/05/02 12:05:19;;;;;;;9.70;5.35;;;21.80;68.80;;;;;;4986314;28;20030;-61
2022/05/02 12:07:59;;;;;;;10.18;5.88;;;21.80;67.00;;;;;;4991459;28;20431;-60
2022/05/02 12:10:41;;;;;;;12.73;6.95;;;21.70;66.50;;;;;;4986991;28;20408;-60
2022/05/02 12:13:12;;;;;;;12.40;6.35;;;21.50;67.00;;;;;;4986190;28;20092;-58
2022/05/02 12:15:56;;;;;;;7.95;5.50;;;21.20;67.70;;;;;;4986432;28;20026;-59
2022/05/02 12:18:21;;;;;;;;;;;21.50;69.10;;;;;;4993704;28;20025;-58
2022/05/02 12:20:54;;;;;;;11.15;5.25;;;21.70;67.90;;;;;;4990080;28;19968;-58
2022/05/02 12:23:23;;;;;;;9.93;6.15;;;21.70;69.10;;;;;;4988913;28;20038;-59
2022/05/02 12:25:51;;;;;;;13.02;5.95;;;21.50;68.60;;;;;;4983357;28;20114;-61
2022/05/02 12:28:37;;;;;;;6.70;5.40;;;21.10;69.50;;;;;;4985535;28;20110;-59
2022/05/02 12:31:06;;;;;;;8.02;5.25;;;21.00;70.00;;;;;;4980076;28;20026;-55
2022/05/02 12:33:35;;;;;;;10.30;6.20;;;20.90;71.40;;;;;;4976481;28;20462;-60
2022/05/02 12:36:01;;;;;;;9.82;6.47;;;20.90;70.60;;;;;;4989202;28;20084;-60
2022/05/02 12:38:28;;;;;;;9.20;5.72;;;20.80;70.00;;;;;;4987926;28;20041;-58
2022/05/02 12:41:01;;;;;;;8.63;5.75;;;20.90;70.00;;;;;;4984092;28;20026;-58
2022/05/02 12:43:40;;;;;;;6.72;5.45;;;20.80;70.50;;;;;;4982820;28;20029;-56
2022/05/02 12:46:10;;;;;;;7.50;6.20;;;20.90;70.60;;;;;;4988096;28;20066;-60
2022/05/02 12:48:41;;;;;;;8.73;5.50;;;20.80;71.60;;;;;;4987444;28;20543;-60
2022/05/02 12:51:14;;;;;;;8.52;6.53;;;20.70;70.60;;;;;;4986227;28;20034;-59
2022/05/02 12:56:24;;;;;;;10.40;7.10;;;20.10;71.60;;;;;;4990115;28;20558;-58
2022/05/02 13:01:43;;;;;;;7.88;6.15;;;19.60;72.40;;;;;;4987362;28;21895;-57
2022/05/02 13:04:18;;;;;;;8.35;6.22;;;19.70;73.10;;;;;;4990333;28;20105;-60
2022/05/02 13:06:45;;;;;;;11.02;7.18;;;19.70;73.10;;;;;;4980974;28;20287;-59
2022/05/02 13:09:16;;;;;;;8.88;6.90;;;19.70;73.30;;;;;;4991758;28;20080;-61
2022/05/02 13:11:43;;;;;;;15.40;7.75;;;19.70;73.30;;;;;;4991100;28;20031;-59
2022/05/02 13:14:22;;;;;;;15.18;7.72;;;19.60;74.10;;;;;;4979263;28;20096;-58
2022/05/02 13:16:49;;;;;;;13.57;6.55;;;19.70;73.50;;;;;;4982044;28;20053;-60
2022/05/02 13:19:15;;;;;;;11.73;6.55;;;19.80;74.00;;;;;;4981307;28;20081;-61
2022/05/02 13:21:41;;;;;;;9.00;6.07;;;20.20;73.00;;;;;;4986075;28;20031;-59
2022/05/02 13:24:12;;;;;;;7.60;6.35;;;20.30;72.30;;;;;;4985262;28;20109;-58
2022/05/02 13:26:56;;;;;;;14.00;7.47;;;20.40;71.40;;;;;;4991870;28;20022;-60
2022/05/02 13:29:26;;;;;;;13.93;7.32;;;20.40;71.40;;;;;;4992016;28;20049;-55
2022/05/02 13:32:05;;;;;;;14.90;6.90;;;20.50;71.10;;;;;;4987900;28;20018;-60
2022/05/02 13:34:39;;;;;;;12.73;5.75;;;20.70;71.40;;;;;;4992273;28;20030;-57
2022/05/02 13:37:31;;;;;;;10.27;5.78;;;20.70;70.70;;;;;;4987099;28;20026;-55
2022/05/02 13:40:08;;;;;;;10.45;5.45;;;20.80;70.30;;;;;;4984752;28;20120;-57
2022/05/02 13:42:35;;;;;;;13.10;6.65;;;20.90;69.50;;;;;;4987706;28;20088;-58
2022/05/02 13:45:04;;;;;;;12.20;6.32;;;20.80;69.70;;;;;;4985551;28;20025;-59
2022/05/02 13:47:46;;;;;;;6.90;6.20;;;20.90;70.10;;;;;;4978134;28;20427;-59
2022/05/02 13:50:18;;;;;;;8.88;5.55;;;21.00;70.50;;;;;;4978945;28;20439;-59
2022/05/02 13:52:50;;;;;;;9.48;5.80;;;21.00;71.90;;;;;;4986292;28;20057;-58